KBKX

Brookings Regional Airport

Brookings, South Dakota, USA
METAR KBKX 191656Z AUTO 01011G16KT 10SM OVC011 21/19 A2992 RMK AO2 SLPNO T02110189
Observed Flight Rules
Aug-19 @ 16:56 UTC (16 minutes ago) Marginal Visual Flight Rules
Wind Visibility Clouds
10° at 11 knots
 Gusting to 16 knots
10 miles
  • Overcast at 1,100' AGL
Temperatures Readings
Current 21°C / 70°F
Dewpoint 19°C / 66°F
Humidity 88%
Altimeter 29.92" Hg
Pressure 1013 hPa
Elevation 502
METAR KBKX 191656Z AUTO 01011G16KT 10SM OVC011 21/19 A2992 RMK AO2 SLPNO T02110189
Observed Flight Rules
Aug-19 @ 16:56 UTC
(16 minutes ago)
MVFR
Wind Visibility
10° at 11 knots
 Gusting to 16 knots
10 miles
Clouds
  • Overcast at 1,100' AGL
Temperature Dewpoint
21°C / 70°F 19°C / 66°F
Humidity Altimeter Pressure
88% 29.92" Hg 1013 hPa